sensor_id;sensor_type;location;lat;lon;timestamp;P1;durP1;ratioP1;P2;durP2;ratioP2
78346;SDS011;67803;41.330;69.282;2023-02-18T00:01:15;31.17;;;17.38;;
78346;SDS011;67803;41.330;69.282;2023-02-18T00:03:45;33.97;;;17.35;;
78346;SDS011;67803;41.330;69.282;2023-02-18T00:06:17;32.08;;;17.23;;
78346;SDS011;67803;41.330;69.282;2023-02-18T00:08:48;34.17;;;17.98;;
78346;SDS011;67803;41.330;69.282;2023-02-18T00:11:19;34.22;;;19.00;;
78346;SDS011;67803;41.330;69.282;2023-02-18T00:13:51;36.55;;;18.67;;
78346;SDS011;67803;41.330;69.282;2023-02-18T00:16:23;39.67;;;21.55;;
78346;SDS011;67803;41.330;69.282;2023-02-18T00:18:54;46.30;;;23.30;;
78346;SDS011;67803;41.330;69.282;2023-02-18T00:21:25;42.03;;;20.80;;
78346;SDS011;67803;41.330;69.282;2023-02-18T00:23:56;41.55;;;20.85;;
78346;SDS011;67803;41.330;69.282;2023-02-18T00:26:26;48.60;;;22.90;;
78346;SDS011;67803;41.330;69.282;2023-02-18T00:28:57;40.80;;;21.38;;
78346;SDS011;67803;41.330;69.282;2023-02-18T00:31:31;43.42;;;21.27;;
78346;SDS011;67803;41.330;69.282;2023-02-18T00:34:03;43.72;;;22.33;;
78346;SDS011;67803;41.330;69.282;2023-02-18T00:36:34;45.75;;;23.38;;
78346;SDS011;67803;41.330;69.282;2023-02-18T00:39:05;44.45;;;24.17;;
78346;SDS011;67803;41.330;69.282;2023-02-18T00:41:36;46.85;;;24.20;;
78346;SDS011;67803;41.330;69.282;2023-02-18T00:44:07;44.03;;;24.88;;
78346;SDS011;67803;41.330;69.282;2023-02-18T00:46:37;43.95;;;22.48;;
78346;SDS011;67803;41.330;69.282;2023-02-18T00:49:08;44.03;;;24.45;;
78346;SDS011;67803;41.330;69.282;2023-02-18T00:51:39;44.50;;;21.85;;
78346;SDS011;67803;41.330;69.282;2023-02-18T00:54:09;43.83;;;21.67;;
78346;SDS011;67803;41.330;69.282;2023-02-18T00:56:40;46.65;;;23.63;;
78346;SDS011;67803;41.330;69.282;2023-02-18T00:59:10;41.38;;;22.08;;
78346;SDS011;67803;41.330;69.282;2023-02-18T01:01:40;42.05;;;24.73;;
78346;SDS011;67803;41.330;69.282;2023-02-18T01:04:11;46.50;;;24.67;;
78346;SDS011;67803;41.330;69.282;2023-02-18T01:06:42;51.70;;;25.65;;
78346;SDS011;67803;41.330;69.282;2023-02-18T01:09:12;51.72;;;28.17;;
78346;SDS011;67803;41.330;69.282;2023-02-18T01:11:43;50.33;;;25.83;;
78346;SDS011;67803;41.330;69.282;2023-02-18T01:14:13;50.22;;;24.88;;
78346;SDS011;67803;41.330;69.282;2023-02-18T01:16:44;55.63;;;26.70;;
78346;SDS011;67803;41.330;69.282;2023-02-18T01:19:14;56.70;;;28.92;;
78346;SDS011;67803;41.330;69.282;2023-02-18T01:21:45;59.92;;;29.52;;
78346;SDS011;67803;41.330;69.282;2023-02-18T01:24:15;56.88;;;28.13;;
78346;SDS011;67803;41.330;69.282;2023-02-18T01:26:46;58.72;;;31.50;;
78346;SDS011;67803;41.330;69.282;2023-02-18T01:29:16;56.28;;;27.38;;
78346;SDS011;67803;41.330;69.282;2023-02-18T01:31:47;63.65;;;31.00;;
78346;SDS011;67803;41.330;69.282;2023-02-18T01:34:17;57.33;;;29.67;;
78346;SDS011;67803;41.330;69.282;2023-02-18T01:36:47;56.63;;;28.92;;
78346;SDS011;67803;41.330;69.282;2023-02-18T01:39:18;57.40;;;28.58;;
78346;SDS011;67803;41.330;69.282;2023-02-18T01:41:48;72.10;;;32.75;;
78346;SDS011;67803;41.330;69.282;2023-02-18T01:44:20;67.65;;;31.38;;
78346;SDS011;67803;41.330;69.282;2023-02-18T01:46:51;61.15;;;32.22;;
78346;SDS011;67803;41.330;69.282;2023-02-18T01:49:23;67.57;;;31.85;;
78346;SDS011;67803;41.330;69.282;2023-02-18T01:51:56;67.20;;;30.80;;
78346;SDS011;67803;41.330;69.282;2023-02-18T01:54:38;68.15;;;30.27;;
78346;SDS011;67803;41.330;69.282;2023-02-18T01:59:43;66.93;;;29.90;;
78346;SDS011;67803;41.330;69.282;2023-02-18T02:02:19;65.63;;;30.73;;
78346;SDS011;67803;41.330;69.282;2023-02-18T02:07:21;72.53;;;31.40;;
78346;SDS011;67803;41.330;69.282;2023-02-18T02:09:52;70.97;;;31.10;;
78346;SDS011;67803;41.330;69.282;2023-02-18T02:15:15;64.85;;;30.42;;
78346;SDS011;67803;41.330;69.282;2023-02-18T02:17:54;66.18;;;30.05;;
78346;SDS011;67803;41.330;69.282;2023-02-18T02:39:17;69.40;;;31.75;;
78346;SDS011;67803;41.330;69.282;2023-02-18T02:41:55;64.32;;;29.40;;
78346;SDS011;67803;41.330;69.282;2023-02-18T02:44:30;68.68;;;30.50;;
78346;SDS011;67803;41.330;69.282;2023-02-18T02:47:07;65.78;;;28.92;;
78346;SDS011;67803;41.330;69.282;2023-02-18T02:52:31;66.80;;;29.85;;
78346;SDS011;67803;41.330;69.282;2023-02-18T03:00:04;155.68;;;75.82;;
78346;SDS011;67803;41.330;69.282;2023-02-18T03:02:40;164.52;;;78.25;;
78346;SDS011;67803;41.330;69.282;2023-02-18T03:05:24;152.13;;;73.43;;
78346;SDS011;67803;41.330;69.282;2023-02-18T03:08:12;159.70;;;74.18;;
78346;SDS011;67803;41.330;69.282;2023-02-18T03:18:54;158.65;;;75.03;;
78346;SDS011;67803;41.330;69.282;2023-02-18T03:21:28;170.80;;;82.45;;
78346;SDS011;67803;41.330;69.282;2023-02-18T03:24:06;164.77;;;73.72;;
78346;SDS011;67803;41.330;69.282;2023-02-18T03:26:39;154.93;;;72.78;;
78346;SDS011;67803;41.330;69.282;2023-02-18T03:29:11;139.32;;;64.07;;
78346;SDS011;67803;41.330;69.282;2023-02-18T03:31:42;117.32;;;51.28;;
78346;SDS011;67803;41.330;69.282;2023-02-18T03:34:16;107.90;;;52.45;;
78346;SDS011;67803;41.330;69.282;2023-02-18T03:36:48;115.05;;;54.67;;
78346;SDS011;67803;41.330;69.282;2023-02-18T03:39:19;127.97;;;59.58;;
78346;SDS011;67803;41.330;69.282;2023-02-18T03:41:50;134.40;;;56.85;;
78346;SDS011;67803;41.330;69.282;2023-02-18T03:44:21;130.65;;;61.28;;
78346;SDS011;67803;41.330;69.282;2023-02-18T03:46:53;137.65;;;62.75;;
78346;SDS011;67803;41.330;69.282;2023-02-18T03:49:23;147.48;;;72.25;;
78346;SDS011;67803;41.330;69.282;2023-02-18T03:51:54;145.25;;;72.57;;
78346;SDS011;67803;41.330;69.282;2023-02-18T03:54:24;146.07;;;67.13;;
78346;SDS011;67803;41.330;69.282;2023-02-18T03:56:55;123.65;;;56.17;;
78346;SDS011;67803;41.330;69.282;2023-02-18T03:59:25;104.40;;;49.80;;
78346;SDS011;67803;41.330;69.282;2023-02-18T04:01:56;112.95;;;52.85;;
78346;SDS011;67803;41.330;69.282;2023-02-18T04:04:26;75.68;;;33.22;;
78346;SDS011;67803;41.330;69.282;2023-02-18T04:06:57;104.95;;;46.85;;
78346;SDS011;67803;41.330;69.282;2023-02-18T04:09:27;96.65;;;43.70;;
78346;SDS011;67803;41.330;69.282;2023-02-18T04:11:58;96.00;;;43.65;;
78346;SDS011;67803;41.330;69.282;2023-02-18T04:14:28;104.88;;;49.55;;
78346;SDS011;67803;41.330;69.282;2023-02-18T04:16:59;108.90;;;50.97;;
78346;SDS011;67803;41.330;69.282;2023-02-18T04:19:30;102.50;;;47.40;;
78346;SDS011;67803;41.330;69.282;2023-02-18T04:22:01;97.80;;;45.08;;
78346;SDS011;67803;41.330;69.282;2023-02-18T04:24:31;85.45;;;40.17;;
78346;SDS011;67803;41.330;69.282;2023-02-18T04:27:02;106.18;;;48.90;;
78346;SDS011;67803;41.330;69.282;2023-02-18T04:29:32;110.15;;;49.80;;
78346;SDS011;67803;41.330;69.282;2023-02-18T04:32:03;95.10;;;41.85;;
78346;SDS011;67803;41.330;69.282;2023-02-18T04:34:33;87.65;;;39.38;;
78346;SDS011;67803;41.330;69.282;2023-02-18T04:37:03;90.10;;;40.50;;
78346;SDS011;67803;41.330;69.282;2023-02-18T04:39:34;82.88;;;37.08;;
78346;SDS011;67803;41.330;69.282;2023-02-18T04:42:04;93.65;;;39.85;;
78346;SDS011;67803;41.330;69.282;2023-02-18T04:44:38;91.35;;;41.50;;
78346;SDS011;67803;41.330;69.282;2023-02-18T04:47:08;95.25;;;44.40;;
78346;SDS011;67803;41.330;69.282;2023-02-18T04:49:38;83.25;;;37.80;;
78346;SDS011;67803;41.330;69.282;2023-02-18T04:52:09;86.20;;;38.60;;
78346;SDS011;67803;41.330;69.282;2023-02-18T04:54:39;80.07;;;35.90;;
78346;SDS011;67803;41.330;69.282;2023-02-18T04:57:10;85.75;;;37.33;;
78346;SDS011;67803;41.330;69.282;2023-02-18T04:59:40;77.50;;;34.33;;
78346;SDS011;67803;41.330;69.282;2023-02-18T05:02:11;71.82;;;31.77;;
78346;SDS011;67803;41.330;69.282;2023-02-18T05:04:41;75.47;;;32.90;;
78346;SDS011;67803;41.330;69.282;2023-02-18T05:07:12;72.95;;;32.67;;
78346;SDS011;67803;41.330;69.282;2023-02-18T05:09:42;75.55;;;33.83;;
78346;SDS011;67803;41.330;69.282;2023-02-18T05:12:13;73.13;;;33.22;;
78346;SDS011;67803;41.330;69.282;2023-02-18T05:14:43;82.90;;;35.90;;
78346;SDS011;67803;41.330;69.282;2023-02-18T05:17:14;77.05;;;33.05;;
78346;SDS011;67803;41.330;69.282;2023-02-18T05:19:44;74.93;;;33.63;;
78346;SDS011;67803;41.330;69.282;2023-02-18T05:22:14;77.03;;;34.03;;
78346;SDS011;67803;41.330;69.282;2023-02-18T05:24:45;76.80;;;34.42;;
78346;SDS011;67803;41.330;69.282;2023-02-18T05:27:15;82.43;;;35.15;;
78346;SDS011;67803;41.330;69.282;2023-02-18T05:29:46;78.45;;;33.47;;
78346;SDS011;67803;41.330;69.282;2023-02-18T05:32:16;70.45;;;31.23;;
78346;SDS011;67803;41.330;69.282;2023-02-18T05:34:47;78.55;;;33.35;;
78346;SDS011;67803;41.330;69.282;2023-02-18T05:37:17;68.50;;;28.08;;
78346;SDS011;67803;41.330;69.282;2023-02-18T05:39:47;69.05;;;29.45;;
78346;SDS011;67803;41.330;69.282;2023-02-18T05:42:18;57.72;;;27.58;;
78346;SDS011;67803;41.330;69.282;2023-02-18T05:44:48;65.97;;;28.35;;
78346;SDS011;67803;41.330;69.282;2023-02-18T05:47:19;49.28;;;21.75;;
78346;SDS011;67803;41.330;69.282;2023-02-18T05:49:49;37.90;;;16.58;;
78346;SDS011;67803;41.330;69.282;2023-02-18T05:52:20;44.85;;;19.63;;
78346;SDS011;67803;41.330;69.282;2023-02-18T05:54:51;45.15;;;19.30;;
78346;SDS011;67803;41.330;69.282;2023-02-18T05:57:21;45.70;;;21.50;;
78346;SDS011;67803;41.330;69.282;2023-02-18T05:59:52;54.80;;;22.52;;
78346;SDS011;67803;41.330;69.282;2023-02-18T06:02:22;55.10;;;23.75;;
78346;SDS011;67803;41.330;69.282;2023-02-18T06:04:52;34.47;;;15.50;;
78346;SDS011;67803;41.330;69.282;2023-02-18T06:07:23;33.15;;;15.73;;
78346;SDS011;67803;41.330;69.282;2023-02-18T06:09:53;44.25;;;20.33;;
78346;SDS011;67803;41.330;69.282;2023-02-18T06:12:24;39.60;;;19.17;;
78346;SDS011;67803;41.330;69.282;2023-02-18T06:14:54;39.55;;;18.77;;
78346;SDS011;67803;41.330;69.282;2023-02-18T06:17:25;52.22;;;22.60;;
78346;SDS011;67803;41.330;69.282;2023-02-18T06:19:55;50.65;;;21.05;;
78346;SDS011;67803;41.330;69.282;2023-02-18T06:22:26;46.30;;;20.77;;
78346;SDS011;67803;41.330;69.282;2023-02-18T06:24:56;49.30;;;23.02;;
78346;SDS011;67803;41.330;69.282;2023-02-18T06:27:27;48.45;;;20.45;;
78346;SDS011;67803;41.330;69.282;2023-02-18T06:29:57;47.72;;;21.67;;
78346;SDS011;67803;41.330;69.282;2023-02-18T06:32:27;56.78;;;23.77;;
78346;SDS011;67803;41.330;69.282;2023-02-18T06:34:58;56.75;;;25.73;;
78346;SDS011;67803;41.330;69.282;2023-02-18T06:37:28;58.05;;;24.65;;
78346;SDS011;67803;41.330;69.282;2023-02-18T06:39:59;59.72;;;27.08;;
78346;SDS011;67803;41.330;69.282;2023-02-18T06:42:29;60.10;;;26.95;;
78346;SDS011;67803;41.330;69.282;2023-02-18T06:45:00;64.93;;;28.23;;
78346;SDS011;67803;41.330;69.282;2023-02-18T06:47:30;58.47;;;27.17;;
78346;SDS011;67803;41.330;69.282;2023-02-18T06:50:01;61.85;;;28.48;;
78346;SDS011;67803;41.330;69.282;2023-02-18T06:52:31;69.40;;;30.75;;
78346;SDS011;67803;41.330;69.282;2023-02-18T06:55:04;66.95;;;30.73;;
78346;SDS011;67803;41.330;69.282;2023-02-18T06:57:34;71.97;;;30.73;;
78346;SDS011;67803;41.330;69.282;2023-02-18T07:00:05;68.45;;;31.80;;
78346;SDS011;67803;41.330;69.282;2023-02-18T07:02:36;77.82;;;33.08;;
78346;SDS011;67803;41.330;69.282;2023-02-18T07:05:06;71.80;;;33.15;;
78346;SDS011;67803;41.330;69.282;2023-02-18T07:07:37;67.78;;;31.40;;
78346;SDS011;67803;41.330;69.282;2023-02-18T07:10:08;72.63;;;33.40;;
78346;SDS011;67803;41.330;69.282;2023-02-18T07:12:40;72.45;;;31.90;;
78346;SDS011;67803;41.330;69.282;2023-02-18T07:15:10;72.95;;;29.38;;
78346;SDS011;67803;41.330;69.282;2023-02-18T07:17:41;69.07;;;30.65;;
78346;SDS011;67803;41.330;69.282;2023-02-18T07:20:11;58.15;;;23.70;;
78346;SDS011;67803;41.330;69.282;2023-02-18T07:22:42;52.22;;;23.70;;
78346;SDS011;67803;41.330;69.282;2023-02-18T07:25:13;47.15;;;22.60;;
78346;SDS011;67803;41.330;69.282;2023-02-18T07:27:43;55.30;;;24.60;;
78346;SDS011;67803;41.330;69.282;2023-02-18T07:30:14;50.70;;;23.85;;
78346;SDS011;67803;41.330;69.282;2023-02-18T07:32:45;47.78;;;23.73;;
78346;SDS011;67803;41.330;69.282;2023-02-18T07:35:16;38.40;;;19.98;;
78346;SDS011;67803;41.330;69.282;2023-02-18T07:37:50;40.58;;;21.67;;
78346;SDS011;67803;41.330;69.282;2023-02-18T07:40:21;44.25;;;22.38;;
78346;SDS011;67803;41.330;69.282;2023-02-18T07:42:51;40.17;;;22.02;;
78346;SDS011;67803;41.330;69.282;2023-02-18T07:45:21;44.83;;;22.83;;
78346;SDS011;67803;41.330;69.282;2023-02-18T07:47:52;47.22;;;24.83;;
78346;SDS011;67803;41.330;69.282;2023-02-18T07:50:22;40.92;;;22.38;;
78346;SDS011;67803;41.330;69.282;2023-02-18T07:52:53;30.50;;;20.10;;
78346;SDS011;67803;41.330;69.282;2023-02-18T07:55:23;31.52;;;21.10;;
78346;SDS011;67803;41.330;69.282;2023-02-18T07:57:54;29.95;;;19.90;;
78346;SDS011;67803;41.330;69.282;2023-02-18T08:00:29;32.92;;;20.90;;
78346;SDS011;67803;41.330;69.282;2023-02-18T08:03:00;28.55;;;19.45;;
78346;SDS011;67803;41.330;69.282;2023-02-18T08:05:30;21.13;;;16.23;;
78346;SDS011;67803;41.330;69.282;2023-02-18T08:08:01;23.70;;;15.60;;
78346;SDS011;67803;41.330;69.282;2023-02-18T08:10:31;23.60;;;15.60;;
78346;SDS011;67803;41.330;69.282;2023-02-18T08:13:02;21.50;;;14.95;;
78346;SDS011;67803;41.330;69.282;2023-02-18T08:15:32;17.63;;;13.25;;
78346;SDS011;67803;41.330;69.282;2023-02-18T08:18:03;22.55;;;13.25;;
78346;SDS011;67803;41.330;69.282;2023-02-18T08:20:37;19.45;;;13.25;;
78346;SDS011;67803;41.330;69.282;2023-02-18T08:23:08;19.40;;;13.23;;
78346;SDS011;67803;41.330;69.282;2023-02-18T08:25:39;20.58;;;13.40;;
78346;SDS011;67803;41.330;69.282;2023-02-18T08:28:09;18.27;;;13.15;;
78346;SDS011;67803;41.330;69.282;2023-02-18T08:30:44;18.58;;;13.57;;
78346;SDS011;67803;41.330;69.282;2023-02-18T08:33:15;21.65;;;13.65;;
78346;SDS011;67803;41.330;69.282;2023-02-18T08:35:46;21.25;;;14.55;;
78346;SDS011;67803;41.330;69.282;2023-02-18T08:38:17;16.13;;;12.73;;
78346;SDS011;67803;41.330;69.282;2023-02-18T08:40:47;20.10;;;13.43;;
78346;SDS011;67803;41.330;69.282;2023-02-18T08:43:18;17.50;;;12.38;;
78346;SDS011;67803;41.330;69.282;2023-02-18T08:45:48;19.75;;;12.57;;
78346;SDS011;67803;41.330;69.282;2023-02-18T08:48:18;19.27;;;11.75;;
78346;SDS011;67803;41.330;69.282;2023-02-18T08:50:49;19.75;;;12.18;;
78346;SDS011;67803;41.330;69.282;2023-02-18T08:53:19;17.38;;;12.05;;
78346;SDS011;67803;41.330;69.282;2023-02-18T08:55:50;17.70;;;11.88;;
78346;SDS011;67803;41.330;69.282;2023-02-18T08:58:20;16.02;;;10.88;;
78346;SDS011;67803;41.330;69.282;2023-02-18T09:00:51;19.38;;;12.13;;
78346;SDS011;67803;41.330;69.282;2023-02-18T09:03:21;17.42;;;12.00;;
78346;SDS011;67803;41.330;69.282;2023-02-18T09:05:52;17.88;;;11.80;;
78346;SDS011;67803;41.330;69.282;2023-02-18T09:08:22;20.55;;;12.27;;
78346;SDS011;67803;41.330;69.282;2023-02-18T09:10:56;17.05;;;11.57;;
78346;SDS011;67803;41.330;69.282;2023-02-18T09:13:27;18.10;;;12.52;;
78346;SDS011;67803;41.330;69.282;2023-02-18T09:15:58;18.13;;;12.32;;
78346;SDS011;67803;41.330;69.282;2023-02-18T09:18:29;17.30;;;11.20;;
78346;SDS011;67803;41.330;69.282;2023-02-18T09:21:00;17.55;;;12.32;;
78346;SDS011;67803;41.330;69.282;2023-02-18T09:23:31;17.40;;;11.63;;
78346;SDS011;67803;41.330;69.282;2023-02-18T09:26:05;16.95;;;12.30;;
78346;SDS011;67803;41.330;69.282;2023-02-18T09:28:36;16.00;;;9.90;;
78346;SDS011;67803;41.330;69.282;2023-02-18T09:31:08;15.10;;;11.00;;
78346;SDS011;67803;41.330;69.282;2023-02-18T09:33:39;18.50;;;11.95;;
78346;SDS011;67803;41.330;69.282;2023-02-18T09:36:10;18.33;;;11.70;;
78346;SDS011;67803;41.330;69.282;2023-02-18T09:38:41;14.88;;;11.18;;
78346;SDS011;67803;41.330;69.282;2023-02-18T09:41:22;18.70;;;11.00;;
78346;SDS011;67803;41.330;69.282;2023-02-18T09:44:01;16.80;;;11.60;;
78346;SDS011;67803;41.330;69.282;2023-02-18T09:46:33;14.82;;;10.65;;
78346;SDS011;67803;41.330;69.282;2023-02-18T09:49:06;16.33;;;12.20;;
78346;SDS011;67803;41.330;69.282;2023-02-18T09:51:37;15.77;;;11.80;;
78346;SDS011;67803;41.330;69.282;2023-02-18T09:54:09;16.90;;;11.80;;
78346;SDS011;67803;41.330;69.282;2023-02-18T09:56:41;18.02;;;12.85;;
78346;SDS011;67803;41.330;69.282;2023-02-18T09:59:16;16.00;;;12.07;;
78346;SDS011;67803;41.330;69.282;2023-02-18T10:01:48;14.15;;;11.43;;
78346;SDS011;67803;41.330;69.282;2023-02-18T10:04:22;18.02;;;11.77;;
78346;SDS011;67803;41.330;69.282;2023-02-18T10:06:54;16.20;;;11.30;;
78346;SDS011;67803;41.330;69.282;2023-02-18T10:09:32;16.77;;;10.07;;
78346;SDS011;67803;41.330;69.282;2023-02-18T10:15:06;14.77;;;9.75;;
78346;SDS011;67803;41.330;69.282;2023-02-18T10:17:37;14.77;;;9.48;;
78346;SDS011;67803;41.330;69.282;2023-02-18T10:20:09;15.95;;;10.02;;
78346;SDS011;67803;41.330;69.282;2023-02-18T10:22:45;17.25;;;10.75;;
78346;SDS011;67803;41.330;69.282;2023-02-18T10:25:17;14.30;;;10.30;;
78346;SDS011;67803;41.330;69.282;2023-02-18T10:27:48;15.90;;;10.52;;
78346;SDS011;67803;41.330;69.282;2023-02-18T10:30:23;13.10;;;10.25;;
78346;SDS011;67803;41.330;69.282;2023-02-18T10:33:01;13.32;;;9.98;;
78346;SDS011;67803;41.330;69.282;2023-02-18T10:35:43;16.45;;;9.95;;
78346;SDS011;67803;41.330;69.282;2023-02-18T10:43:23;17.13;;;10.18;;
78346;SDS011;67803;41.330;69.282;2023-02-18T10:51:02;14.18;;;10.52;;
78346;SDS011;67803;41.330;69.282;2023-02-18T10:53:35;16.52;;;9.90;;
78346;SDS011;67803;41.330;69.282;2023-02-18T10:56:06;15.52;;;10.55;;
78346;SDS011;67803;41.330;69.282;2023-02-18T10:58:46;15.77;;;10.80;;
78346;SDS011;67803;41.330;69.282;2023-02-18T11:01:18;15.05;;;10.90;;
78346;SDS011;67803;41.330;69.282;2023-02-18T11:03:50;18.35;;;11.48;;
78346;SDS011;67803;41.330;69.282;2023-02-18T11:17:34;17.13;;;10.27;;
78346;SDS011;67803;41.330;69.282;2023-02-18T11:20:19;21.50;;;10.85;;
78346;SDS011;67803;41.330;69.282;2023-02-18T11:22:51;16.02;;;9.85;;
78346;SDS011;67803;41.330;69.282;2023-02-18T11:25:23;15.30;;;10.65;;
78346;SDS011;67803;41.330;69.282;2023-02-18T11:27:54;17.63;;;10.68;;
78346;SDS011;67803;41.330;69.282;2023-02-18T11:30:47;17.58;;;10.30;;
78346;SDS011;67803;41.330;69.282;2023-02-18T11:35:53;15.90;;;9.95;;
78346;SDS011;67803;41.330;69.282;2023-02-18T11:38:26;19.17;;;10.00;;
78346;SDS011;67803;41.330;69.282;2023-02-18T11:41:16;15.98;;;10.05;;
78346;SDS011;67803;41.330;69.282;2023-02-18T11:43:51;15.93;;;10.65;;
78346;SDS011;67803;41.330;69.282;2023-02-18T11:46:24;19.08;;;10.38;;
78346;SDS011;67803;41.330;69.282;2023-02-18T11:48:56;15.15;;;10.27;;
78346;SDS011;67803;41.330;69.282;2023-02-18T11:51:39;15.35;;;9.52;;
78346;SDS011;67803;41.330;69.282;2023-02-18T11:54:26;19.27;;;10.25;;
78346;SDS011;67803;41.330;69.282;2023-02-18T11:57:00;18.55;;;10.10;;
78346;SDS011;67803;41.330;69.282;2023-02-18T11:59:32;14.10;;;9.60;;
78346;SDS011;67803;41.330;69.282;2023-02-18T12:04:44;15.88;;;10.52;;
78346;SDS011;67803;41.330;69.282;2023-02-18T12:07:21;16.48;;;10.70;;
78346;SDS011;67803;41.330;69.282;2023-02-18T12:10:02;16.55;;;10.52;;
78346;SDS011;67803;41.330;69.282;2023-02-18T12:12:50;14.77;;;10.15;;
78346;SDS011;67803;41.330;69.282;2023-02-18T12:15:27;19.05;;;10.70;;
78346;SDS011;67803;41.330;69.282;2023-02-18T12:23:22;17.08;;;10.55;;
78346;SDS011;67803;41.330;69.282;2023-02-18T12:52:23;16.00;;;10.73;;
78346;SDS011;67803;41.330;69.282;2023-02-18T12:57:30;20.70;;;10.80;;
78346;SDS011;67803;41.330;69.282;2023-02-18T13:05:48;20.73;;;11.43;;
78346;SDS011;67803;41.330;69.282;2023-02-18T13:11:09;26.63;;;15.02;;
78346;SDS011;67803;41.330;69.282;2023-02-18T13:13:58;25.35;;;14.13;;
78346;SDS011;67803;41.330;69.282;2023-02-18T13:16:30;25.08;;;14.82;;
78346;SDS011;67803;41.330;69.282;2023-02-18T13:21:51;22.70;;;12.27;;
78346;SDS011;67803;41.330;69.282;2023-02-18T13:35:41;22.48;;;13.27;;
78346;SDS011;67803;41.330;69.282;2023-02-18T13:41:10;24.15;;;13.25;;
78346;SDS011;67803;41.330;69.282;2023-02-18T13:43:41;23.30;;;14.15;;
78346;SDS011;67803;41.330;69.282;2023-02-18T13:46:17;22.15;;;13.75;;
78346;SDS011;67803;41.330;69.282;2023-02-18T13:49:21;22.05;;;13.95;;
78346;SDS011;67803;41.330;69.282;2023-02-18T13:51:45;21.98;;;13.00;;
78346;SDS011;67803;41.330;69.282;2023-02-18T13:54:20;23.23;;;14.45;;
78346;SDS011;67803;41.330;69.282;2023-02-18T13:56:54;22.48;;;12.23;;
78346;SDS011;67803;41.330;69.282;2023-02-18T13:59:49;23.05;;;14.52;;
78346;SDS011;67803;41.330;69.282;2023-02-18T14:04:55;22.38;;;13.02;;
78346;SDS011;67803;41.330;69.282;2023-02-18T14:12:46;22.05;;;12.35;;
78346;SDS011;67803;41.330;69.282;2023-02-18T14:18:21;21.63;;;11.97;;
78346;SDS011;67803;41.330;69.282;2023-02-18T14:20:57;21.17;;;13.18;;
78346;SDS011;67803;41.330;69.282;2023-02-18T14:28:49;18.58;;;12.90;;
78346;SDS011;67803;41.330;69.282;2023-02-18T14:34:49;20.45;;;12.45;;
78346;SDS011;67803;41.330;69.282;2023-02-18T14:50:40;26.00;;;13.82;;
78346;SDS011;67803;41.330;69.282;2023-02-18T14:53:13;22.88;;;13.32;;
78346;SDS011;67803;41.330;69.282;2023-02-18T14:56:02;27.75;;;13.10;;
78346;SDS011;67803;41.330;69.282;2023-02-18T14:58:38;25.48;;;12.68;;
78346;SDS011;67803;41.330;69.282;2023-02-18T15:01:17;24.98;;;14.38;;
78346;SDS011;67803;41.330;69.282;2023-02-18T15:03:48;27.55;;;15.35;;
78346;SDS011;67803;41.330;69.282;2023-02-18T15:06:30;29.80;;;16.95;;
78346;SDS011;67803;41.330;69.282;2023-02-18T15:09:02;26.63;;;14.80;;
78346;SDS011;67803;41.330;69.282;2023-02-18T15:11:37;28.65;;;17.20;;
78346;SDS011;67803;41.330;69.282;2023-02-18T15:14:15;31.25;;;18.67;;
78346;SDS011;67803;41.330;69.282;2023-02-18T15:16:46;33.03;;;19.20;;
78346;SDS011;67803;41.330;69.282;2023-02-18T15:19:18;29.80;;;16.70;;
78346;SDS011;67803;41.330;69.282;2023-02-18T15:21:50;25.08;;;14.90;;
78346;SDS011;67803;41.330;69.282;2023-02-18T15:24:23;27.05;;;15.38;;
78346;SDS011;67803;41.330;69.282;2023-02-18T15:26:56;29.77;;;16.10;;
78346;SDS011;67803;41.330;69.282;2023-02-18T15:29:30;27.20;;;16.67;;
78346;SDS011;67803;41.330;69.282;2023-02-18T15:32:09;23.83;;;14.85;;
78346;SDS011;67803;41.330;69.282;2023-02-18T15:34:43;25.42;;;15.20;;
78346;SDS011;67803;41.330;69.282;2023-02-18T15:37:13;26.10;;;17.20;;
78346;SDS011;67803;41.330;69.282;2023-02-18T15:39:44;29.02;;;16.85;;
78346;SDS011;67803;41.330;69.282;2023-02-18T15:42:24;24.50;;;16.85;;
78346;SDS011;67803;41.330;69.282;2023-02-18T15:45:03;25.75;;;17.17;;
78346;SDS011;67803;41.330;69.282;2023-02-18T15:47:34;30.17;;;16.77;;
78346;SDS011;67803;41.330;69.282;2023-02-18T15:50:14;31.08;;;18.00;;
78346;SDS011;67803;41.330;69.282;2023-02-18T15:52:45;30.58;;;18.20;;
78346;SDS011;67803;41.330;69.282;2023-02-18T15:55:29;35.58;;;19.95;;
78346;SDS011;67803;41.330;69.282;2023-02-18T15:58:02;33.30;;;18.95;;
78346;SDS011;67803;41.330;69.282;2023-02-18T16:00:40;32.80;;;19.35;;
78346;SDS011;67803;41.330;69.282;2023-02-18T16:03:14;31.30;;;18.75;;
78346;SDS011;67803;41.330;69.282;2023-02-18T16:05:44;37.30;;;19.42;;
78346;SDS011;67803;41.330;69.282;2023-02-18T16:08:20;38.72;;;19.33;;
78346;SDS011;67803;41.330;69.282;2023-02-18T16:10:55;29.85;;;17.02;;
78346;SDS011;67803;41.330;69.282;2023-02-18T16:13:28;29.67;;;18.48;;
78346;SDS011;67803;41.330;69.282;2023-02-18T16:16:00;33.72;;;18.05;;
78346;SDS011;67803;41.330;69.282;2023-02-18T16:18:35;33.50;;;19.83;;
78346;SDS011;67803;41.330;69.282;2023-02-18T16:23:54;37.08;;;21.52;;
78346;SDS011;67803;41.330;69.282;2023-02-18T16:29:11;36.33;;;21.92;;
78346;SDS011;67803;41.330;69.282;2023-02-18T16:31:42;38.67;;;22.85;;
78346;SDS011;67803;41.330;69.282;2023-02-18T16:34:12;46.55;;;24.83;;
78346;SDS011;67803;41.330;69.282;2023-02-18T16:36:43;44.42;;;23.55;;
78346;SDS011;67803;41.330;69.282;2023-02-18T16:39:33;36.00;;;22.08;;
78346;SDS011;67803;41.330;69.282;2023-02-18T16:42:12;39.20;;;22.77;;
78346;SDS011;67803;41.330;69.282;2023-02-18T16:44:43;43.50;;;22.67;;
78346;SDS011;67803;41.330;69.282;2023-02-18T16:47:14;43.17;;;24.48;;
78346;SDS011;67803;41.330;69.282;2023-02-18T16:49:47;36.50;;;22.33;;
78346;SDS011;67803;41.330;69.282;2023-02-18T16:52:18;36.90;;;22.92;;
78346;SDS011;67803;41.330;69.282;2023-02-18T16:54:49;37.00;;;20.73;;
78346;SDS011;67803;41.330;69.282;2023-02-18T16:57:19;41.28;;;24.65;;
78346;SDS011;67803;41.330;69.282;2023-02-18T16:59:50;39.75;;;21.48;;
78346;SDS011;67803;41.330;69.282;2023-02-18T17:02:20;35.42;;;21.52;;
78346;SDS011;67803;41.330;69.282;2023-02-18T17:04:51;33.05;;;20.92;;
78346;SDS011;67803;41.330;69.282;2023-02-18T17:07:26;36.42;;;21.10;;
78346;SDS011;67803;41.330;69.282;2023-02-18T17:09:59;45.13;;;19.13;;
78346;SDS011;67803;41.330;69.282;2023-02-18T17:12:30;33.50;;;18.50;;
78346;SDS011;67803;41.330;69.282;2023-02-18T17:15:00;31.52;;;18.45;;
78346;SDS011;67803;41.330;69.282;2023-02-18T17:17:32;32.28;;;18.17;;
78346;SDS011;67803;41.330;69.282;2023-02-18T17:20:02;30.55;;;18.85;;
78346;SDS011;67803;41.330;69.282;2023-02-18T17:22:33;32.40;;;20.83;;
78346;SDS011;67803;41.330;69.282;2023-02-18T17:25:08;32.25;;;19.67;;
78346;SDS011;67803;41.330;69.282;2023-02-18T17:27:39;37.92;;;19.40;;
78346;SDS011;67803;41.330;69.282;2023-02-18T17:30:09;35.38;;;21.10;;